createdAt,value
2018-12-29T00:04:42.726Z,5.96
2018-12-29T00:07:13.889Z,5.90
2018-12-29T00:09:45.231Z,5.89
2018-12-29T00:12:16.259Z,5.92
2018-12-29T00:14:47.334Z,5.93
2018-12-29T00:17:18.418Z,5.95
2018-12-29T00:22:59.491Z,5.94
2018-12-29T00:25:30.640Z,5.96
2018-12-29T00:28:20.998Z,5.97
2018-12-29T00:30:52.580Z,5.95
2018-12-29T00:33:23.484Z,5.94
2018-12-29T00:35:54.414Z,5.94
2018-12-29T00:38:25.352Z,5.87
2018-12-29T00:43:52.076Z,5.82
2018-12-29T00:46:23.501Z,5.82
2018-12-29T00:48:54.397Z,5.78
2018-12-29T00:51:25.281Z,5.76
2018-12-29T00:53:56.431Z,5.76
2018-12-29T00:56:27.542Z,5.73
2018-12-29T01:01:53.695Z,5.74
2018-12-29T01:04:24.828Z,5.74
2018-12-29T01:06:56.104Z,5.74
2018-12-29T01:09:27.351Z,5.71
2018-12-29T01:11:58.421Z,5.66
2018-12-29T01:14:30.407Z,5.66
2018-12-29T01:19:39.196Z,5.65
2018-12-29T01:22:10.208Z,5.69
2018-12-29T01:24:41.459Z,5.67
2018-12-29T01:27:12.348Z,5.68
2018-12-29T01:29:43.314Z,5.57
2018-12-29T01:32:14.274Z,5.58
2018-12-29T01:34:45.150Z,5.58
2018-12-29T01:37:34.962Z,5.59
2018-12-29T01:40:06.167Z,5.59
2018-12-29T01:45:17.272Z,5.63
2018-12-29T01:50:23.069Z,5.66
2018-12-29T01:52:54.325Z,5.64
2018-12-29T01:55:25.298Z,5.66
2018-12-29T01:57:56.175Z,5.64
2018-12-29T02:00:27.408Z,5.64
2018-12-29T02:02:59.419Z,5.61
2018-12-29T02:05:30.318Z,5.66
2018-12-29T02:08:01.328Z,5.65
2018-12-29T02:10:32.209Z,5.60
2018-12-29T02:13:03.426Z,5.59
2018-12-29T02:15:34.294Z,5.62
2018-12-29T02:18:05.291Z,5.67
2018-12-29T02:20:36.173Z,5.66
2018-12-29T02:23:08.438Z,5.66
2018-12-29T02:28:17.032Z,5.58
2018-12-29T02:30:48.189Z,5.57
2018-12-29T02:33:19.042Z,5.62
2018-12-29T02:35:50.061Z,5.60
2018-12-29T02:38:21.124Z,5.56
2018-12-29T02:40:52.246Z,5.59
2018-12-29T02:45:59.136Z,5.54
2018-12-29T02:48:30.322Z,5.54
2018-12-29T02:51:01.396Z,5.56
2018-12-29T02:53:33.424Z,5.58
2018-12-29T02:56:04.384Z,5.56
2018-12-29T02:58:35.264Z,5.59
2018-12-29T03:01:06.186Z,5.61
2018-12-29T03:03:37.480Z,5.62
2018-12-29T03:06:08.380Z,5.59
2018-12-29T03:11:15.317Z,5.63
2018-12-29T03:13:46.288Z,5.64
2018-12-29T03:16:17.199Z,5.68
2018-12-29T03:18:48.554Z,5.69
2018-12-29T03:21:19.402Z,5.70
2018-12-29T03:23:50.374Z,5.73
2018-12-29T03:26:21.339Z,5.75
2018-12-29T03:28:52.299Z,5.77
2018-12-29T03:31:23.447Z,5.74
2018-12-29T03:33:54.321Z,5.75
2018-12-29T03:36:25.434Z,5.71
2018-12-29T03:38:56.418Z,5.63
2018-12-29T03:41:27.274Z,5.58
2018-12-29T03:43:58.191Z,5.60
2018-12-29T03:46:29.308Z,5.60
2018-12-29T03:49:00.273Z,5.63
2018-12-29T03:51:31.292Z,5.62
2018-12-29T03:54:02.181Z,5.60
2018-12-29T03:56:33.134Z,5.61
2018-12-29T03:59:05.414Z,5.63
2018-12-29T04:01:36.451Z,5.55
2018-12-29T04:04:07.349Z,5.57
2018-12-29T04:06:38.223Z,5.55
2018-12-29T04:09:46.594Z,5.59
2018-12-29T04:12:23.074Z,5.61
2018-12-29T04:14:54.159Z,5.59
2018-12-29T04:17:25.029Z,5.56
2018-12-29T04:19:56.243Z,5.56
2018-12-29T04:22:27.218Z,5.53
2018-12-29T04:24:58.276Z,5.55
2018-12-29T04:27:29.665Z,5.54
2018-12-29T04:30:00.590Z,5.53
2018-12-29T04:32:31.547Z,5.48
2018-12-29T04:35:02.460Z,5.51
2018-12-29T04:37:33.295Z,5.49
2018-12-29T04:42:42.229Z,5.51
2018-12-29T04:45:13.363Z,5.51
2018-12-29T04:47:44.398Z,5.53
2018-12-29T04:50:15.294Z,5.55
2018-12-29T04:52:46.510Z,5.57
2018-12-29T04:55:55.910Z,5.56
2018-12-29T04:58:27.277Z,5.59
2018-12-29T05:00:58.129Z,5.55
2018-12-29T05:03:28.973Z,5.59
2018-12-29T05:06:00.178Z,5.58
2018-12-29T05:08:31.126Z,5.62
2018-12-29T05:11:02.486Z,5.64
2018-12-29T05:13:33.312Z,5.63
2018-12-29T05:16:04.245Z,5.64
2018-12-29T05:18:35.452Z,5.63
2018-12-29T05:21:07.458Z,5.67
2018-12-29T05:23:38.412Z,5.62
2018-12-29T05:26:09.419Z,5.65
2018-12-29T05:28:40.273Z,5.68
2018-12-29T05:31:11.370Z,5.67
2018-12-29T05:33:42.290Z,5.67
2018-12-29T05:36:13.315Z,5.70
2018-12-29T05:38:44.392Z,5.72
2018-12-29T05:41:16.494Z,5.74
2018-12-29T05:43:47.458Z,5.75
2018-12-29T05:46:20.482Z,5.74
2018-12-29T05:48:51.244Z,5.74
2018-12-29T05:51:22.105Z,5.75
2018-12-29T05:53:53.397Z,5.78
2018-12-29T05:57:02.802Z,5.82
2018-12-29T05:59:34.063Z,5.81
2018-12-29T06:02:23.850Z,5.84
2018-12-29T06:04:55.112Z,5.84
2018-12-29T06:10:26.325Z,5.82
2018-12-29T06:12:57.272Z,5.85
2018-12-29T06:15:28.366Z,5.84
2018-12-29T06:17:59.309Z,5.86
2018-12-29T06:20:30.262Z,5.85
2018-12-29T06:23:01.216Z,5.83
2018-12-29T06:25:32.055Z,5.81
2018-12-29T06:28:03.204Z,5.85
2018-12-29T06:30:34.313Z,5.86
2018-12-29T06:33:05.155Z,5.84
2018-12-29T06:35:36.151Z,5.85
2018-12-29T06:38:07.037Z,5.86
2018-12-29T06:40:38.367Z,5.87
2018-12-29T06:43:09.236Z,5.87
2018-12-29T06:45:40.064Z,5.88
2018-12-29T06:48:11.134Z,5.90
2018-12-29T06:50:42.316Z,5.92
2018-12-29T06:53:13.321Z,5.93
2018-12-29T06:55:44.302Z,5.95
2018-12-29T06:58:15.303Z,5.95
2018-12-29T07:00:46.382Z,5.95
2018-12-29T07:03:17.278Z,5.92
2018-12-29T07:05:48.324Z,5.93
2018-12-29T07:08:19.729Z,5.87
2018-12-29T07:10:51.180Z,5.88
2018-12-29T07:13:22.043Z,5.88
2018-12-29T07:15:53.237Z,5.89
2018-12-29T07:18:24.298Z,5.89
2018-12-29T07:20:55.197Z,5.90
2018-12-29T07:23:26.208Z,5.88
2018-12-29T07:25:57.086Z,5.88
2018-12-29T07:28:28.041Z,5.91
2018-12-29T07:30:59.277Z,5.94
2018-12-29T07:33:30.423Z,6.15
2018-12-29T07:36:01.453Z,6.11
2018-12-29T07:38:32.406Z,6.04
2018-12-29T07:41:03.337Z,6.05
2018-12-29T07:43:34.290Z,6.06
2018-12-29T07:46:05.146Z,6.05
2018-12-29T07:48:36.241Z,6.03
2018-12-29T07:51:07.391Z,6.03
2018-12-29T07:53:38.268Z,6.02
2018-12-29T07:56:09.418Z,6.01
2018-12-29T07:58:40.287Z,6.04
2018-12-29T08:01:11.519Z,6.04
2018-12-29T08:03:42.418Z,6.01
2018-12-29T08:06:13.285Z,6.00
2018-12-29T08:08:44.218Z,5.98
2018-12-29T08:11:16.389Z,5.98
2018-12-29T08:16:24.187Z,5.99
2018-12-29T08:18:55.518Z,5.99
2018-12-29T08:21:26.376Z,5.95
2018-12-29T08:23:57.705Z,5.98
2018-12-29T08:26:28.965Z,5.98
2018-12-29T08:29:00.128Z,5.99
2018-12-29T08:31:31.646Z,6.00
2018-12-29T08:34:02.885Z,6.01
2018-12-29T08:36:34.015Z,6.02
2018-12-29T08:39:24.996Z,6.03
2018-12-29T08:41:56.520Z,6.04
2018-12-29T08:44:28.002Z,6.06
2018-12-29T08:47:04.421Z,6.07
2018-12-29T08:49:33.490Z,6.10
2018-12-29T08:52:23.759Z,6.13
2018-12-29T08:54:55.093Z,6.14
2018-12-29T09:00:02.127Z,6.15
2018-12-29T09:02:33.339Z,6.13
2018-12-29T09:05:04.436Z,6.16
2018-12-29T09:07:35.322Z,6.16
2018-12-29T09:10:06.384Z,6.17
2018-12-29T09:12:37.314Z,6.19
2018-12-29T09:15:08.237Z,6.15
2018-12-29T09:17:39.156Z,6.17
2018-12-29T09:20:10.075Z,6.19
2018-12-29T09:22:41.427Z,6.20
2018-12-29T09:25:12.368Z,6.24
2018-12-29T09:27:44.362Z,6.27
2018-12-29T09:30:15.307Z,6.29
2018-12-29T09:32:46.233Z,6.29
2018-12-29T09:35:17.300Z,6.28
2018-12-29T09:37:48.560Z,6.31
2018-12-29T09:40:19.421Z,6.31
2018-12-29T09:42:50.359Z,6.36
2018-12-29T09:45:21.372Z,6.34
2018-12-29T09:47:52.344Z,6.36
2018-12-29T09:50:23.212Z,6.35
2018-12-29T09:52:54.116Z,6.36
2018-12-29T09:55:25.149Z,6.31
2018-12-29T09:57:56.069Z,6.31
2018-12-29T10:00:27.375Z,6.33
2018-12-29T10:02:58.547Z,6.31
2018-12-29T10:05:29.456Z,6.27
2018-12-29T10:08:00.640Z,6.24
2018-12-29T10:10:32.517Z,6.23
2018-12-29T10:13:03.445Z,6.27
2018-12-29T10:15:34.423Z,6.24
2018-12-29T10:18:05.432Z,6.26
2018-12-29T10:20:36.529Z,6.22
2018-12-29T10:23:07.432Z,6.28
2018-12-29T10:25:38.288Z,6.23
2018-12-29T10:28:10.070Z,6.23
2018-12-29T10:30:41.249Z,6.25
2018-12-29T10:33:12.402Z,6.26
2018-12-29T10:35:43.341Z,6.26
2018-12-29T10:38:14.303Z,6.26
2018-12-29T10:40:45.455Z,6.25
2018-12-29T10:43:16.428Z,6.25
2018-12-29T10:45:47.454Z,6.18
2018-12-29T10:48:18.396Z,6.22
2018-12-29T10:50:49.406Z,6.27
2018-12-29T10:53:20.542Z,6.27
2018-12-29T10:55:51.521Z,6.27
2018-12-29T10:58:22.972Z,6.25
2018-12-29T11:00:54.116Z,6.29
2018-12-29T11:03:25.077Z,6.24
2018-12-29T11:05:56.139Z,6.25
2018-12-29T11:08:27.323Z,7.03
2018-12-29T11:10:58.782Z,7.91
2018-12-29T11:13:30.079Z,7.23
2018-12-29T11:16:03.140Z,6.92
2018-12-29T11:18:34.147Z,6.85
2018-12-29T11:21:05.033Z,6.64
2018-12-29T11:23:36.445Z,6.59
2018-12-29T11:26:07.379Z,6.55
2018-12-29T11:28:39.248Z,6.48
2018-12-29T11:31:10.296Z,6.46
2018-12-29T11:33:41.264Z,6.38
2018-12-29T11:38:48.966Z,6.37
2018-12-29T11:41:20.392Z,6.37
2018-12-29T11:43:51.280Z,6.36
2018-12-29T11:46:22.632Z,6.38
2018-12-29T11:48:53.982Z,6.36
2018-12-29T11:51:25.539Z,6.35
2018-12-29T11:53:57.056Z,6.38
2018-12-29T11:56:28.053Z,6.35
2018-12-29T11:58:59.294Z,6.31
2018-12-29T12:01:31.501Z,6.33
2018-12-29T12:04:02.502Z,6.31
2018-12-29T12:06:33.506Z,6.37
2018-12-29T12:09:05.167Z,6.33
2018-12-29T12:11:36.468Z,6.32
2018-12-29T12:14:07.560Z,6.28
2018-12-29T12:16:38.483Z,6.27
2018-12-29T12:19:09.475Z,6.29
2018-12-29T12:21:42.285Z,6.33
2018-12-29T12:24:31.912Z,6.32
2018-12-29T12:27:40.505Z,6.30
2018-12-29T12:30:11.791Z,6.30
2018-12-29T12:32:43.139Z,6.33
2018-12-29T12:35:14.696Z,6.33
2018-12-29T12:37:46.446Z,6.35
2018-12-29T12:40:26.198Z,6.36
2018-12-29T12:43:00.088Z,6.39
2018-12-29T12:45:31.062Z,6.43
2018-12-29T12:48:05.121Z,6.41
2018-12-29T12:50:35.509Z,6.43
2018-12-29T12:53:06.552Z,6.40
2018-12-29T12:55:38.061Z,6.41
2018-12-29T12:58:09.463Z,6.39
2018-12-29T13:00:40.746Z,6.41
2018-12-29T13:03:13.691Z,6.43
2018-12-29T13:06:03.696Z,6.42
2018-12-29T13:08:35.638Z,6.42
2018-12-29T13:11:06.543Z,6.39
2018-12-29T13:13:37.588Z,6.80
2018-12-29T13:16:08.578Z,7.44
2018-12-29T13:18:39.541Z,7.83
2018-12-29T13:21:10.454Z,8.34
2018-12-29T13:23:41.781Z,8.62
2018-12-29T13:26:31.672Z,7.61
2018-12-29T13:29:02.979Z,7.61
2018-12-29T13:31:34.199Z,7.18
2018-12-29T13:34:05.445Z,6.99
2018-12-29T13:36:37.335Z,6.92
2018-12-29T13:39:10.099Z,6.91
2018-12-29T13:41:41.768Z,6.72
2018-12-29T13:44:13.086Z,6.72
2018-12-29T13:52:50.873Z,6.58
2018-12-29T13:55:28.417Z,6.59
2018-12-29T13:58:01.078Z,6.58
2018-12-29T14:00:32.825Z,6.60
2018-12-29T14:03:04.231Z,6.64
2018-12-29T14:05:55.111Z,6.63
2018-12-29T14:08:26.427Z,6.61
2018-12-29T14:10:57.468Z,6.59
2018-12-29T14:13:29.598Z,6.59
2018-12-29T14:16:00.672Z,6.60
2018-12-29T14:18:31.544Z,6.57
2018-12-29T14:21:02.488Z,6.55
2018-12-29T14:23:34.211Z,6.55
2018-12-29T14:26:05.060Z,6.48
2018-12-29T14:28:36.837Z,6.50
2018-12-29T14:31:08.204Z,6.47
2018-12-29T14:33:39.358Z,6.51
2018-12-29T14:36:10.600Z,6.51
2018-12-29T14:38:41.472Z,6.50
2018-12-29T14:41:12.449Z,6.45
2018-12-29T14:43:43.883Z,6.46
2018-12-29T14:46:15.060Z,6.45
2018-12-29T14:48:46.274Z,6.47
2018-12-29T14:51:17.463Z,6.49
2018-12-29T14:53:49.557Z,6.48
2018-12-29T14:56:20.453Z,6.47
2018-12-29T14:58:51.371Z,6.47
2018-12-29T15:01:22.433Z,6.48
2018-12-29T15:03:54.049Z,6.46
2018-12-29T15:06:25.144Z,6.48
2018-12-29T15:08:56.054Z,6.48
2018-12-29T15:11:27.058Z,6.48
2018-12-29T15:13:58.197Z,6.49
2018-12-29T15:16:29.263Z,6.50
2018-12-29T15:19:00.486Z,6.48
2018-12-29T15:21:32.029Z,6.47
2018-12-29T15:24:03.273Z,6.49
2018-12-29T15:26:34.194Z,6.47
2018-12-29T15:29:10.740Z,6.50
2018-12-29T15:31:41.867Z,6.49
2018-12-29T15:34:13.088Z,6.49
2018-12-29T15:36:44.146Z,6.48
2018-12-29T15:39:15.438Z,6.49
2018-12-29T15:41:46.453Z,6.48
2018-12-29T15:44:17.470Z,6.44
2018-12-29T15:46:48.360Z,6.47
2018-12-29T15:49:19.369Z,6.48
2018-12-29T15:51:51.821Z,6.45
2018-12-29T15:54:22.963Z,6.46
2018-12-29T15:56:54.116Z,6.46
2018-12-29T15:59:25.086Z,6.48
2018-12-29T16:01:56.228Z,6.48
2018-12-29T16:04:27.320Z,6.47
2018-12-29T16:06:58.320Z,6.47
2018-12-29T16:09:29.716Z,6.46
2018-12-29T16:12:01.160Z,6.46
2018-12-29T16:14:35.461Z,6.45
2018-12-29T16:17:05.105Z,6.46
2018-12-29T16:19:36.042Z,6.46
2018-12-29T16:22:07.339Z,6.43
2018-12-29T16:24:38.221Z,6.43
2018-12-29T16:27:09.352Z,6.45
2018-12-29T16:29:40.284Z,6.40
2018-12-29T16:32:11.347Z,6.38
2018-12-29T16:34:42.538Z,6.40
2018-12-29T16:37:13.919Z,6.41
2018-12-29T16:39:45.842Z,6.41
2018-12-29T16:42:16.990Z,6.38
2018-12-29T16:44:48.240Z,6.40
2018-12-29T16:47:19.272Z,6.41
2018-12-29T16:49:50.515Z,6.37
2018-12-29T16:52:21.979Z,6.39
2018-12-29T16:54:53.741Z,6.40
2018-12-29T16:57:25.821Z,6.40
2018-12-29T16:59:57.414Z,6.41
2018-12-29T17:02:28.490Z,6.45
2018-12-29T17:04:59.460Z,6.44
2018-12-29T17:07:30.334Z,6.44
2018-12-29T17:10:01.601Z,6.40
2018-12-29T17:12:33.831Z,6.43
2018-12-29T17:15:06.043Z,6.44
2018-12-29T17:17:39.598Z,6.45
2018-12-29T17:20:12.939Z,6.43
2018-12-29T17:22:44.538Z,6.43
2018-12-29T17:25:15.796Z,6.44
2018-12-29T17:27:47.382Z,6.43
2018-12-29T17:30:18.314Z,6.41
2018-12-29T17:32:49.316Z,6.40
2018-12-29T17:35:20.344Z,6.33
2018-12-29T17:37:51.163Z,6.41
2018-12-29T17:40:22.465Z,6.41
2018-12-29T17:42:53.375Z,6.35
2018-12-29T17:45:24.247Z,6.37
2018-12-29T17:47:55.337Z,6.33
2018-12-29T17:50:26.496Z,6.30
2018-12-29T17:52:57.460Z,6.30
2018-12-29T17:55:28.378Z,6.31
2018-12-29T17:57:59.865Z,6.29
2018-12-29T18:00:31.246Z,6.29
2018-12-29T18:03:02.171Z,6.28
2018-12-29T18:05:33.128Z,6.29
2018-12-29T18:08:04.082Z,6.30
2018-12-29T18:10:35.411Z,6.31
2018-12-29T18:13:06.380Z,6.34
2018-12-29T18:15:38.711Z,6.35
2018-12-29T18:18:12.065Z,6.33
2018-12-29T18:21:05.675Z,6.34
2018-12-29T18:23:40.928Z,6.33
2018-12-29T18:26:19.202Z,6.34
2018-12-29T18:28:50.131Z,6.34
2018-12-29T18:31:27.824Z,6.34
2018-12-29T18:34:00.444Z,6.32
2018-12-29T18:36:35.125Z,6.32
2018-12-29T18:39:10.479Z,6.34
2018-12-29T18:41:41.533Z,6.33
2018-12-29T18:44:13.546Z,6.32
2018-12-29T18:46:44.667Z,6.33
2018-12-29T18:49:16.822Z,6.33
2018-12-29T18:51:48.456Z,6.34
2018-12-29T18:54:20.730Z,6.35
2018-12-29T18:56:51.939Z,6.35
2018-12-29T18:59:23.186Z,6.34
2018-12-29T19:01:57.745Z,6.32
2018-12-29T19:04:27.164Z,6.33
2018-12-29T19:06:58.472Z,6.32
2018-12-29T19:09:29.363Z,6.34
2018-12-29T19:12:00.446Z,6.31
2018-12-29T19:14:31.392Z,6.34
2018-12-29T19:17:02.293Z,6.32
2018-12-29T19:19:35.005Z,6.35
2018-12-29T19:22:06.846Z,6.38
2018-12-29T19:24:38.261Z,6.36
2018-12-29T19:27:09.368Z,6.35
2018-12-29T19:29:41.429Z,6.37
2018-12-29T19:32:13.506Z,6.37
2018-12-29T19:34:44.995Z,6.39
2018-12-29T19:37:18.789Z,6.37
2018-12-29T19:39:50.529Z,6.38
2018-12-29T19:42:21.455Z,6.41
2018-12-29T19:44:52.693Z,6.39
2018-12-29T19:47:23.639Z,6.41
2018-12-29T19:49:55.790Z,6.41
2018-12-29T19:52:27.714Z,6.41
2018-12-29T19:54:59.222Z,6.42
2018-12-29T19:57:31.404Z,6.45
2018-12-29T20:00:02.424Z,6.45
2018-12-29T20:02:35.780Z,6.41
2018-12-29T20:05:07.165Z,6.92
2018-12-29T20:07:38.345Z,7.77
2018-12-29T20:10:09.779Z,8.32
2018-12-29T20:12:41.064Z,8.90
2018-12-29T20:15:12.416Z,9.45
2018-12-29T20:17:43.416Z,9.74
2018-12-29T20:20:14.525Z,10.04
2018-12-29T20:22:45.574Z,9.73
2018-12-29T20:25:16.539Z,9.23
2018-12-29T20:27:48.790Z,8.70
2018-12-29T20:30:21.117Z,8.36
2018-12-29T20:32:58.933Z,8.04
2018-12-29T20:35:25.134Z,7.86
2018-12-29T20:37:56.856Z,7.71
2018-12-29T20:40:28.486Z,7.56
2018-12-29T20:42:59.486Z,8.22
2018-12-29T20:45:32.752Z,8.62
2018-12-29T20:48:05.030Z,8.33
2018-12-29T20:50:36.684Z,8.07
2018-12-29T20:53:07.714Z,7.75
2018-12-29T20:55:40.232Z,7.58
2018-12-29T20:58:11.125Z,7.47
2018-12-29T21:00:42.208Z,7.34
2018-12-29T21:03:13.688Z,7.21
2018-12-29T21:05:44.568Z,7.04
2018-12-29T21:08:15.816Z,7.04
2018-12-29T21:10:47.469Z,7.01
2018-12-29T21:13:19.367Z,6.97
2018-12-29T21:15:50.315Z,6.96
2018-12-29T21:18:21.351Z,6.88
2018-12-29T21:20:52.396Z,6.83
2018-12-29T21:23:24.104Z,6.79
2018-12-29T21:25:55.367Z,6.82
2018-12-29T21:28:26.474Z,6.78
2018-12-29T21:30:57.469Z,6.73
2018-12-29T21:33:29.347Z,6.71
2018-12-29T21:36:00.412Z,6.69
2018-12-29T21:38:31.296Z,7.35
2018-12-29T21:41:02.333Z,7.76
2018-12-29T21:43:33.326Z,7.72
2018-12-29T21:46:04.495Z,7.50
2018-12-29T21:48:35.390Z,7.29
2018-12-29T21:51:06.342Z,7.22
2018-12-29T21:53:37.360Z,6.99
2018-12-29T21:56:08.441Z,6.93
2018-12-29T21:58:40.124Z,6.79
2018-12-29T22:01:11.693Z,6.79
2018-12-29T22:03:42.880Z,6.76
2018-12-29T22:06:14.117Z,6.63
2018-12-29T22:08:45.433Z,6.63
2018-12-29T22:11:16.673Z,6.65
2018-12-29T22:13:51.417Z,6.60
2018-12-29T22:16:22.275Z,6.59
2018-12-29T22:18:53.404Z,6.59
2018-12-29T22:21:25.493Z,6.58
2018-12-29T22:23:56.474Z,6.59
2018-12-29T22:26:27.430Z,6.72
2018-12-29T22:28:59.405Z,6.72
2018-12-29T22:31:30.325Z,6.63
2018-12-29T22:34:01.305Z,6.54
2018-12-29T22:36:33.420Z,6.52
2018-12-29T22:39:04.796Z,6.52
2018-12-29T22:41:54.936Z,6.46
2018-12-29T22:44:50.582Z,6.40
2018-12-29T22:47:21.961Z,6.43
2018-12-29T22:49:53.290Z,6.39
2018-12-29T22:52:24.390Z,6.37
2018-12-29T22:55:10.507Z,6.42
2018-12-29T22:57:41.960Z,6.35
2018-12-29T23:00:27.214Z,6.34
2018-12-29T23:02:58.714Z,6.29
2018-12-29T23:05:30.284Z,6.24
2018-12-29T23:08:01.365Z,6.28
2018-12-29T23:10:32.316Z,6.22
2018-12-29T23:13:03.647Z,6.22
2018-12-29T23:15:35.927Z,6.17
2018-12-29T23:18:07.031Z,6.15
2018-12-29T23:20:38.409Z,6.12
2018-12-29T23:23:09.345Z,6.09
2018-12-29T23:25:40.360Z,6.07
2018-12-29T23:28:11.213Z,6.06
2018-12-29T23:30:42.311Z,6.06
2018-12-29T23:33:13.390Z,6.06
2018-12-29T23:35:44.350Z,6.00
2018-12-29T23:38:16.544Z,6.00
2018-12-29T23:40:47.508Z,6.09
2018-12-29T23:43:18.345Z,6.03
2018-12-29T23:45:49.291Z,5.96
2018-12-29T23:48:20.152Z,5.94
2018-12-29T23:51:05.134Z,5.87
2018-12-29T23:53:24.276Z,5.85
2018-12-29T23:55:55.874Z,5.85
2018-12-29T23:58:27.098Z,5.88
